createdAt,value
2023-04-17T00:01:47.999Z,9.60
2023-04-17T00:04:16.220Z,9.90
2023-04-17T00:06:45.513Z,9.53
2023-04-17T00:09:20.945Z,9.80
2023-04-17T00:11:49.318Z,10.10
2023-04-17T00:14:17.564Z,9.77
2023-04-17T00:16:47.316Z,10.40
2023-04-17T00:19:15.614Z,10.40
2023-04-17T00:21:43.783Z,9.87
2023-04-17T00:24:13.150Z,10.20
2023-04-17T00:26:47.029Z,9.40
2023-04-17T00:29:15.280Z,9.60
2023-04-17T00:31:43.610Z,10.90
2023-04-17T00:34:13.090Z,10.10
2023-04-17T00:36:41.216Z,9.90
2023-04-17T00:39:09.422Z,10.20
2023-04-17T00:41:37.687Z,9.33
2023-04-17T00:44:06.120Z,9.53
2023-04-17T00:46:34.282Z,9.43
2023-04-17T00:49:02.377Z,9.90
2023-04-17T00:51:31.882Z,9.87
2023-04-17T00:54:00.044Z,9.73
2023-04-17T00:56:28.328Z,10.53
2023-04-17T00:58:56.808Z,9.17
2023-04-17T01:01:24.899Z,9.67
2023-04-17T01:03:53.057Z,10.70
2023-04-17T01:06:21.302Z,8.97
2023-04-17T01:08:50.802Z,9.90
2023-04-17T01:11:18.833Z,8.83
2023-04-17T01:13:47.385Z,10.73
2023-04-17T01:16:15.583Z,10.40
2023-04-17T01:18:43.793Z,10.57
2023-04-17T01:21:11.936Z,10.70
2023-04-17T01:23:45.328Z,9.60
2023-04-17T01:26:17.343Z,9.83
2023-04-17T01:28:45.470Z,9.67
2023-04-17T01:31:17.148Z,10.10
2023-04-17T01:33:45.213Z,9.50
2023-04-17T01:36:13.423Z,10.17
2023-04-17T01:38:41.443Z,10.20
2023-04-17T01:41:10.741Z,9.80
2023-04-17T01:43:42.118Z,9.60
2023-04-17T01:46:10.247Z,10.27
2023-04-17T01:48:41.420Z,10.40
2023-04-17T01:51:09.487Z,10.40
2023-04-17T01:53:37.613Z,10.20
2023-04-17T01:56:07.281Z,9.70
2023-04-17T01:58:35.636Z,8.93
2023-04-17T02:01:05.669Z,9.80
2023-04-17T02:03:33.937Z,9.60
2023-04-17T02:06:02.631Z,10.10
2023-04-17T02:08:30.809Z,9.90
2023-04-17T02:10:58.893Z,8.40
2023-04-17T02:13:26.973Z,9.73
2023-04-17T02:15:55.072Z,10.30
2023-04-17T02:18:24.635Z,10.70
2023-04-17T02:20:52.788Z,10.07
2023-04-17T02:23:21.328Z,9.77
2023-04-17T02:25:49.381Z,10.87
2023-04-17T02:28:17.537Z,9.50
2023-04-17T02:30:46.310Z,10.30
2023-04-17T02:33:14.415Z,9.27
2023-04-17T02:35:43.894Z,10.83
2023-04-17T02:38:11.945Z,10.70
2023-04-17T02:40:40.070Z,10.50
2023-04-17T02:43:08.265Z,10.80
2023-04-17T02:45:36.688Z,9.13
2023-04-17T02:48:05.089Z,10.27
2023-04-17T02:50:33.270Z,10.50
2023-04-17T02:53:02.749Z,10.60
2023-04-17T02:55:36.857Z,10.50
2023-04-17T02:58:04.955Z,10.23
2023-04-17T03:00:33.127Z,10.43
2023-04-17T03:03:03.027Z,10.30
2023-04-17T03:05:31.353Z,10.60
2023-04-17T03:07:59.718Z,11.00
2023-04-17T03:10:29.277Z,10.37
2023-04-17T03:12:57.354Z,10.07
2023-04-17T03:15:25.468Z,10.43
2023-04-17T03:17:53.612Z,10.70
2023-04-17T03:20:21.744Z,9.60
2023-04-17T03:22:49.893Z,10.10
2023-04-17T03:25:18.061Z,10.20
2023-04-17T03:27:47.542Z,10.80
2023-04-17T03:30:15.730Z,9.60
2023-04-17T03:32:43.875Z,10.77
2023-04-17T03:35:11.993Z,10.53
2023-04-17T03:37:40.107Z,10.67
2023-04-17T03:40:09.516Z,9.80
2023-04-17T03:42:37.707Z,10.60
2023-04-17T03:45:11.803Z,10.10
2023-04-17T03:47:47.751Z,10.70
2023-04-17T03:50:15.919Z,9.77
2023-04-17T03:52:44.348Z,10.20
2023-04-17T03:55:12.710Z,10.10
2023-04-17T03:57:40.834Z,10.33
2023-04-17T04:00:11.612Z,10.63
2023-04-17T04:02:47.415Z,11.03
2023-04-17T04:05:15.667Z,10.67
2023-04-17T04:07:43.848Z,10.20
2023-04-17T04:10:12.476Z,9.53
2023-04-17T04:12:40.625Z,10.63
2023-04-17T04:15:11.366Z,11.23
2023-04-17T04:17:39.531Z,9.47
2023-04-17T04:20:09.411Z,10.57
2023-04-17T04:22:37.612Z,10.90
2023-04-17T04:25:06.578Z,10.80
2023-04-17T04:27:34.704Z,10.67
2023-04-17T04:30:02.771Z,9.77
2023-04-17T04:32:32.306Z,11.00
2023-04-17T04:35:02.164Z,10.90
2023-04-17T04:37:31.779Z,10.53
2023-04-17T04:40:10.595Z,10.83
2023-04-17T04:42:39.777Z,10.90
2023-04-17T04:45:08.857Z,11.20
2023-04-17T04:47:38.415Z,10.33
2023-04-17T04:50:07.496Z,11.00
2023-04-17T04:52:35.886Z,10.97
2023-04-17T04:55:04.020Z,11.17
2023-04-17T04:57:32.156Z,10.70
2023-04-17T05:00:00.342Z,10.90
2023-04-17T05:02:28.557Z,12.20
2023-04-17T05:04:58.405Z,11.43
2023-04-17T05:07:27.305Z,10.13
2023-04-17T05:09:55.609Z,11.03
2023-04-17T05:12:23.687Z,11.77
2023-04-17T05:14:51.818Z,11.23
2023-04-17T05:17:27.818Z,11.53
2023-04-17T05:19:57.425Z,11.00
2023-04-17T05:22:27.557Z,11.23
2023-04-17T05:25:03.261Z,11.53
2023-04-17T05:27:31.410Z,10.20
2023-04-17T05:29:59.517Z,11.80
2023-04-17T05:32:27.714Z,11.17
2023-04-17T05:34:57.235Z,10.37
2023-04-17T05:37:25.677Z,11.50
2023-04-17T05:39:53.812Z,10.93
2023-04-17T05:42:21.906Z,10.40
2023-04-17T05:44:49.976Z,11.50
2023-04-17T05:47:18.107Z,11.77
2023-04-17T05:49:46.177Z,10.93
2023-04-17T05:52:15.667Z,11.90
2023-04-17T05:54:43.781Z,12.20
2023-04-17T05:57:12.156Z,12.17
2023-04-17T05:59:40.361Z,12.30
2023-04-17T06:02:08.868Z,11.67
2023-04-17T06:04:37.352Z,11.97
2023-04-17T06:07:06.232Z,10.90
2023-04-17T06:09:36.335Z,11.90
2023-04-17T06:12:04.570Z,11.30
2023-04-17T06:14:32.704Z,10.80
2023-04-17T06:17:03.917Z,11.17
2023-04-17T06:19:32.013Z,10.83
2023-04-17T06:22:00.093Z,11.20
2023-04-17T06:24:28.143Z,11.60
2023-04-17T06:26:58.012Z,10.63
2023-04-17T06:29:26.053Z,10.93
2023-04-17T06:31:54.142Z,11.90
2023-04-17T06:34:22.261Z,9.90
2023-04-17T06:36:50.579Z,11.73
2023-04-17T06:39:18.660Z,12.10
2023-04-17T06:41:46.785Z,12.07
2023-04-17T06:44:16.342Z,11.40
2023-04-17T06:46:44.428Z,11.87
2023-04-17T06:49:12.742Z,11.47
2023-04-17T06:51:41.072Z,11.53
2023-04-17T06:54:10.919Z,10.60
2023-04-17T06:56:39.022Z,10.40
2023-04-17T06:59:07.135Z,10.70
2023-04-17T07:01:38.248Z,11.57
2023-04-17T07:04:08.457Z,12.00
2023-04-17T07:06:36.692Z,11.73
2023-04-17T07:09:05.041Z,11.67
2023-04-17T07:11:33.110Z,11.97
2023-04-17T07:14:01.267Z,11.90
2023-04-17T07:16:29.461Z,11.37
2023-04-17T07:18:58.976Z,12.10
2023-04-17T07:21:27.797Z,12.20
2023-04-17T07:23:55.997Z,12.40
2023-04-17T07:26:24.140Z,12.03
2023-04-17T07:28:52.288Z,11.70
2023-04-17T07:31:22.287Z,12.33
2023-04-17T07:33:50.640Z,12.20
2023-04-17T07:36:20.191Z,12.97
2023-04-17T07:38:48.250Z,12.73
2023-04-17T07:41:16.633Z,12.40
2023-04-17T07:43:45.966Z,12.80
2023-04-17T07:46:14.138Z,11.80
2023-04-17T07:48:42.258Z,11.80
2023-04-17T07:51:10.567Z,11.60
2023-04-17T07:53:40.116Z,12.37
2023-04-17T07:56:08.216Z,12.60
2023-04-17T07:58:36.793Z,11.93
2023-04-17T08:01:05.792Z,12.30
2023-04-17T08:03:34.144Z,14.20
2023-04-17T08:06:02.536Z,13.00
2023-04-17T08:08:30.652Z,12.37
2023-04-17T08:11:00.170Z,13.13
2023-04-17T08:13:31.918Z,12.63
2023-04-17T08:16:01.573Z,12.80
2023-04-17T08:18:29.674Z,12.80
2023-04-17T08:20:57.824Z,13.00
2023-04-17T08:23:26.081Z,12.60
2023-04-17T08:25:54.223Z,12.53
2023-04-17T08:28:24.498Z,12.50
2023-04-17T08:30:52.628Z,13.00
2023-04-17T08:33:20.764Z,12.97
2023-04-17T08:35:48.961Z,12.50
2023-04-17T08:38:17.046Z,13.47
2023-04-17T08:40:47.087Z,12.40
2023-04-17T08:43:15.770Z,13.57
2023-04-17T08:45:54.153Z,11.87
2023-04-17T08:48:22.536Z,13.90
2023-04-17T08:50:51.256Z,13.13
2023-04-17T08:53:19.692Z,12.60
2023-04-17T08:55:48.269Z,12.57
2023-04-17T08:58:16.559Z,12.83
2023-04-17T09:00:46.337Z,12.73
2023-04-17T09:03:29.310Z,12.30
2023-04-17T09:05:57.754Z,12.83
2023-04-17T09:08:25.896Z,12.00
2023-04-17T09:10:54.726Z,12.63
2023-04-17T09:13:25.193Z,12.63
2023-04-17T09:16:07.433Z,12.40
2023-04-17T09:18:36.032Z,12.33
2023-04-17T09:21:04.784Z,11.20
2023-04-17T09:23:46.433Z,11.07
2023-04-17T09:26:15.368Z,11.23
2023-04-17T09:28:45.437Z,11.10
2023-04-17T09:31:27.380Z,11.50
2023-04-17T09:33:59.029Z,12.20
2023-04-17T09:36:30.514Z,10.80
2023-04-17T09:38:59.894Z,10.70
2023-04-17T09:41:28.908Z,11.03
2023-04-17T09:44:01.047Z,11.03
2023-04-17T09:46:34.455Z,11.03
2023-04-17T09:49:04.223Z,10.00
2023-04-17T09:51:32.329Z,11.33
2023-04-17T09:54:00.622Z,10.90
2023-04-17T09:56:29.674Z,9.53
2023-04-17T09:58:59.139Z,11.00
2023-04-17T10:01:27.710Z,10.47
2023-04-17T10:03:57.647Z,10.33
2023-04-17T10:06:26.778Z,9.87
2023-04-17T10:08:57.237Z,10.20
2023-04-17T10:11:29.867Z,10.63
2023-04-17T10:14:04.107Z,10.90
2023-04-17T10:16:36.671Z,9.80
2023-04-17T10:19:31.101Z,9.40
2023-04-17T10:22:29.922Z,9.60
2023-04-17T10:25:34.633Z,10.00
2023-04-17T10:28:03.300Z,9.13
2023-04-17T10:30:53.945Z,9.70
2023-04-17T10:33:26.482Z,9.63
2023-04-17T10:35:56.150Z,9.13
2023-04-17T10:38:37.282Z,9.00
2023-04-17T10:41:11.397Z,9.20
2023-04-17T10:43:43.564Z,8.90
2023-04-17T10:46:12.664Z,8.97
2023-04-17T10:48:47.549Z,8.40
2023-04-17T10:51:41.730Z,8.57
2023-04-17T10:54:13.694Z,8.53
2023-04-17T10:56:42.522Z,8.13
2023-04-17T10:59:11.546Z,8.10
2023-04-17T11:01:41.483Z,9.03
2023-04-17T11:04:10.595Z,8.27
2023-04-17T11:06:39.469Z,7.90
2023-04-17T11:09:10.588Z,8.30
2023-04-17T11:11:44.153Z,7.67
2023-04-17T11:14:17.678Z,7.80
2023-04-17T11:16:47.718Z,7.93
2023-04-17T11:19:19.184Z,7.60
2023-04-17T11:21:47.443Z,8.00
2023-04-17T11:24:23.267Z,7.73
2023-04-17T11:26:51.389Z,7.60
2023-04-17T11:29:20.529Z,7.70
2023-04-17T11:31:55.416Z,7.47
2023-04-17T11:34:23.599Z,7.60
2023-04-17T11:36:51.905Z,7.40
2023-04-17T11:39:22.715Z,7.50
2023-04-17T11:41:52.163Z,6.30
2023-04-17T11:44:21.162Z,7.73
2023-04-17T11:46:51.286Z,6.90
2023-04-17T11:49:26.585Z,7.07
2023-04-17T11:51:56.847Z,7.30
2023-04-17T11:54:29.126Z,7.07
2023-04-17T11:57:01.523Z,6.33
2023-04-17T11:59:33.316Z,7.60
2023-04-17T12:02:02.239Z,6.90
2023-04-17T12:04:33.586Z,6.53
2023-04-17T12:07:02.676Z,6.80
2023-04-17T12:09:32.705Z,6.40
2023-04-17T12:12:01.381Z,6.67
2023-04-17T12:14:29.479Z,6.90
2023-04-17T12:16:57.599Z,6.70
2023-04-17T12:19:27.403Z,6.90
2023-04-17T12:21:55.785Z,6.67
2023-04-17T12:24:25.194Z,6.33
2023-04-17T12:26:54.977Z,6.60
2023-04-17T12:29:32.721Z,6.90
2023-04-17T12:32:11.546Z,6.60
2023-04-17T12:34:40.043Z,6.80
2023-04-17T12:37:08.261Z,5.87
2023-04-17T12:39:50.355Z,6.23
2023-04-17T12:42:19.928Z,6.50
2023-04-17T12:44:48.486Z,6.60
2023-04-17T12:47:16.606Z,6.13
2023-04-17T12:49:44.671Z,5.80
2023-04-17T12:52:12.743Z,6.20
2023-04-17T12:54:40.910Z,6.30
2023-04-17T12:57:10.009Z,6.20
2023-04-17T12:59:39.721Z,6.70
2023-04-17T13:02:08.025Z,6.10
2023-04-17T13:04:36.378Z,6.23
2023-04-17T13:07:04.722Z,6.27
2023-04-17T13:09:32.823Z,6.67
2023-04-17T13:14:58.238Z,6.00
2023-04-17T13:17:26.391Z,6.23
2023-04-17T13:19:54.492Z,7.00
2023-04-17T13:22:22.560Z,6.10
2023-04-17T13:24:50.607Z,6.83
2023-04-17T13:27:20.846Z,6.40
2023-04-17T13:29:48.906Z,6.03
2023-04-17T13:32:18.619Z,6.53
2023-04-17T13:34:46.768Z,5.63
2023-04-17T13:37:15.606Z,6.60
2023-04-17T13:39:43.655Z,6.00
2023-04-17T13:42:11.975Z,6.37
2023-04-17T13:44:40.073Z,6.77
2023-04-17T13:47:08.189Z,6.27
2023-04-17T13:49:37.945Z,6.20
2023-04-17T13:52:06.127Z,6.70
2023-04-17T13:54:34.244Z,5.53
2023-04-17T13:57:02.497Z,6.40
2023-04-17T13:59:30.634Z,6.23
2023-04-17T14:02:00.431Z,6.30
2023-04-17T14:04:28.655Z,6.47
2023-04-17T14:06:58.284Z,5.90
2023-04-17T14:09:26.324Z,5.63
2023-04-17T14:11:54.590Z,6.60
2023-04-17T14:14:22.896Z,6.27
2023-04-17T14:16:51.097Z,5.67
2023-04-17T14:19:19.895Z,5.93
2023-04-17T14:21:48.279Z,6.17
2023-04-17T14:24:17.719Z,5.90
2023-04-17T14:26:46.078Z,6.27
2023-04-17T14:29:14.708Z,5.40
2023-04-17T14:31:43.014Z,6.27
2023-04-17T14:34:11.306Z,6.10
2023-04-17T14:36:39.425Z,6.20
2023-04-17T14:39:07.550Z,6.40
2023-04-17T14:41:37.066Z,5.80
2023-04-17T14:44:05.294Z,6.00
2023-04-17T14:46:33.497Z,6.67
2023-04-17T14:49:01.547Z,5.70
2023-04-17T14:51:30.672Z,6.10
2023-04-17T14:53:58.884Z,5.70
2023-04-17T14:56:26.963Z,5.60
2023-04-17T14:58:56.508Z,5.63
2023-04-17T15:01:24.725Z,6.90
2023-04-17T15:03:53.241Z,5.80
2023-04-17T15:06:21.795Z,6.47
2023-04-17T15:08:52.696Z,6.10
2023-04-17T15:11:20.994Z,5.93
2023-04-17T15:13:49.113Z,5.87
2023-04-17T15:16:18.640Z,5.30
2023-04-17T15:18:46.701Z,6.37
2023-04-17T15:21:15.134Z,5.33
2023-04-17T15:23:43.217Z,6.10
2023-04-17T15:26:11.310Z,6.23
2023-04-17T15:28:39.659Z,6.30
2023-04-17T15:31:08.052Z,6.67
2023-04-17T15:33:38.523Z,5.97
2023-04-17T15:36:06.639Z,5.90
2023-04-17T15:38:34.732Z,5.77
2023-04-17T15:41:03.663Z,5.73
2023-04-17T15:43:31.784Z,5.80
2023-04-17T15:46:00.199Z,5.60
2023-04-17T15:48:28.588Z,5.77
2023-04-17T15:50:58.064Z,5.63
2023-04-17T15:53:26.236Z,6.27
2023-04-17T15:55:54.328Z,6.27
2023-04-17T15:58:25.256Z,5.80
2023-04-17T16:00:53.379Z,5.83
2023-04-17T16:03:21.626Z,5.50
2023-04-17T16:05:49.818Z,6.20
2023-04-17T16:08:19.226Z,6.00
2023-04-17T16:10:47.294Z,5.60
2023-04-17T16:13:16.180Z,6.30
2023-04-17T16:15:47.449Z,5.93
2023-04-17T16:18:16.160Z,6.33
2023-04-17T16:20:44.404Z,5.80
2023-04-17T16:23:12.551Z,5.90
2023-04-17T16:25:42.192Z,5.90
2023-04-17T16:28:10.336Z,5.73
2023-04-17T16:30:38.841Z,5.17
2023-04-17T16:33:06.891Z,6.43
2023-04-17T16:35:36.411Z,5.87
2023-04-17T16:38:04.505Z,5.13
2023-04-17T16:40:32.587Z,5.40
2023-04-17T16:43:02.163Z,5.30
2023-04-17T16:45:30.269Z,6.10
2023-04-17T16:48:00.611Z,5.60
2023-04-17T16:50:28.721Z,5.10
2023-04-17T16:52:56.835Z,6.33
2023-04-17T16:55:25.030Z,4.73
2023-04-17T16:57:53.164Z,5.00
2023-04-17T17:00:23.144Z,5.37
2023-04-17T17:02:51.283Z,5.70
2023-04-17T17:05:19.524Z,5.30
2023-04-17T17:07:47.568Z,4.80
2023-04-17T17:10:15.812Z,5.93
2023-04-17T17:12:44.016Z,5.40
2023-04-17T17:15:12.842Z,5.27
2023-04-17T17:17:43.120Z,5.40
2023-04-17T17:20:17.596Z,5.80
2023-04-17T17:22:45.759Z,5.60
2023-04-17T17:25:13.954Z,6.17
2023-04-17T17:27:42.092Z,5.40
2023-04-17T17:30:10.870Z,5.00
2023-04-17T17:32:38.987Z,5.00
2023-04-17T17:35:09.621Z,5.70
2023-04-17T17:37:37.683Z,6.20
2023-04-17T17:40:06.893Z,5.40
2023-04-17T17:42:34.915Z,5.77
2023-04-17T17:45:03.008Z,5.90
2023-04-17T17:47:31.078Z,5.73
2023-04-17T17:49:59.184Z,5.67
2023-04-17T17:52:28.699Z,5.30
2023-04-17T17:54:56.782Z,5.10
2023-04-17T17:57:25.515Z,5.93
2023-04-17T17:59:55.764Z,5.83
2023-04-17T18:02:24.002Z,5.43
2023-04-17T18:04:52.191Z,5.57
2023-04-17T18:07:20.500Z,5.20
2023-04-17T18:09:50.869Z,5.93
2023-04-17T18:12:19.691Z,5.67
2023-04-17T18:14:47.723Z,5.33
2023-04-17T18:17:16.430Z,5.63
2023-04-17T18:19:44.758Z,5.53
2023-04-17T18:22:12.890Z,5.33
2023-04-17T18:24:41.026Z,5.70
2023-04-17T18:27:10.731Z,5.87
2023-04-17T18:29:38.900Z,5.50
2023-04-17T18:32:09.786Z,5.70
2023-04-17T18:34:37.814Z,6.00
2023-04-17T18:37:06.623Z,5.67
2023-04-17T18:39:34.861Z,5.33
2023-04-17T18:42:03.053Z,5.83
2023-04-17T18:44:32.530Z,5.33
2023-04-17T18:47:12.084Z,4.60
2023-04-17T18:49:40.221Z,5.30
2023-04-17T18:52:08.355Z,6.30
2023-04-17T18:54:37.163Z,5.20
2023-04-17T18:57:10.566Z,4.93
2023-04-17T18:59:41.442Z,5.50
2023-04-17T19:02:11.196Z,5.60
2023-04-17T19:04:39.212Z,5.30
2023-04-17T19:07:07.327Z,5.33
2023-04-17T19:09:35.555Z,5.40
2023-04-17T19:12:03.896Z,5.73
2023-04-17T19:14:33.166Z,5.10
2023-04-17T19:17:02.680Z,5.20
2023-04-17T19:19:36.731Z,5.83
2023-04-17T19:22:04.752Z,4.70
2023-04-17T19:24:33.119Z,5.60
2023-04-17T19:27:02.010Z,5.47
2023-04-17T19:29:30.193Z,5.77
2023-04-17T19:31:58.334Z,4.80
2023-04-17T19:34:28.103Z,5.60
2023-04-17T19:37:12.333Z,4.83
2023-04-17T19:39:40.402Z,5.50
2023-04-17T19:42:10.476Z,5.03
2023-04-17T19:44:38.583Z,5.30
2023-04-17T19:47:07.292Z,5.53
2023-04-17T19:49:36.905Z,5.27
2023-04-17T19:52:05.264Z,5.40
2023-04-17T19:54:33.561Z,5.33
2023-04-17T19:57:02.290Z,5.47
2023-04-17T19:59:30.350Z,5.67
2023-04-17T20:01:58.507Z,5.13
2023-04-17T20:04:26.802Z,5.33
2023-04-17T20:06:56.416Z,5.97
2023-04-17T20:09:24.865Z,5.73
2023-04-17T20:11:53.062Z,5.97
2023-04-17T20:14:21.247Z,6.10
2023-04-17T20:16:50.153Z,4.97
2023-04-17T20:19:18.378Z,5.50
2023-04-17T20:21:47.664Z,5.53
2023-04-17T20:24:17.303Z,5.80
2023-04-17T20:26:45.634Z,5.37
2023-04-17T20:29:13.998Z,5.50
2023-04-17T20:31:42.296Z,5.07
2023-04-17T20:34:10.378Z,5.40
2023-04-17T20:36:38.442Z,5.73
2023-04-17T20:39:07.149Z,5.10
2023-04-17T20:41:38.304Z,6.00
2023-04-17T20:44:07.782Z,5.60
2023-04-17T20:46:35.901Z,5.60
2023-04-17T20:49:04.022Z,5.60
2023-04-17T20:51:34.714Z,5.50
2023-04-17T20:54:02.779Z,5.40
2023-04-17T20:56:30.851Z,5.77
2023-04-17T20:59:00.274Z,5.93
2023-04-17T21:01:28.480Z,5.37
2023-04-17T21:03:56.778Z,4.93
2023-04-17T21:06:25.990Z,6.10
2023-04-17T21:08:54.098Z,6.50
2023-04-17T21:11:22.394Z,6.40
2023-04-17T21:13:50.518Z,5.40
2023-04-17T21:16:20.132Z,5.80
2023-04-17T21:18:48.171Z,5.47
2023-04-17T21:21:16.277Z,5.73
2023-04-17T21:23:44.399Z,5.60
2023-04-17T21:26:12.504Z,5.70
2023-04-17T21:28:41.407Z,6.00
2023-04-17T21:31:10.416Z,5.60
2023-04-17T21:33:40.191Z,5.20
2023-04-17T21:36:08.516Z,5.83
2023-04-17T21:38:36.599Z,5.40
2023-04-17T21:41:04.758Z,6.27
2023-04-17T21:43:32.768Z,5.70
2023-04-17T21:46:00.895Z,5.77
2023-04-17T21:48:29.130Z,5.73
2023-04-17T21:51:02.469Z,6.17
2023-04-17T21:53:30.606Z,6.07
2023-04-17T21:55:58.685Z,5.57
2023-04-17T21:58:26.816Z,6.03
2023-04-17T22:00:55.399Z,5.50
2023-04-17T22:03:23.560Z,5.53
2023-04-17T22:05:53.740Z,5.40
2023-04-17T22:08:23.169Z,5.90
2023-04-17T22:10:51.359Z,6.40
2023-04-17T22:13:19.429Z,5.93
2023-04-17T22:15:48.983Z,5.57
2023-04-17T22:18:17.019Z,5.57
2023-04-17T22:21:09.155Z,6.17
2023-04-17T22:23:38.586Z,5.70
2023-04-17T22:26:06.647Z,6.37
2023-04-17T22:28:34.637Z,5.37
2023-04-17T22:31:02.671Z,5.40
2023-04-17T22:33:30.737Z,5.70
2023-04-17T22:35:58.724Z,5.73
2023-04-17T22:38:26.797Z,5.73
2023-04-17T22:40:56.227Z,5.93
2023-04-17T22:43:24.263Z,5.40
2023-04-17T22:45:52.284Z,5.80
2023-04-17T22:48:23.863Z,5.50
2023-04-17T22:50:52.493Z,5.53
2023-04-17T22:53:23.585Z,5.37
2023-04-17T22:56:02.631Z,5.60
2023-04-17T22:58:31.772Z,5.90
2023-04-17T23:01:00.050Z,5.50
2023-04-17T23:03:28.190Z,5.37
2023-04-17T23:05:56.204Z,4.43
2023-04-17T23:08:24.370Z,5.20
2023-04-17T23:10:59.777Z,5.40
2023-04-17T23:13:29.163Z,5.80
2023-04-17T23:15:57.275Z,5.40
2023-04-17T23:18:25.427Z,4.87
2023-04-17T23:20:53.498Z,4.90
2023-04-17T23:23:21.578Z,5.00
2023-04-17T23:25:49.635Z,5.50
2023-04-17T23:28:17.848Z,5.50
2023-04-17T23:30:47.250Z,5.40
2023-04-17T23:33:15.258Z,4.97
2023-04-17T23:35:43.321Z,5.67
2023-04-17T23:38:11.369Z,4.60
2023-04-17T23:40:39.544Z,5.43
2023-04-17T23:43:08.034Z,5.10
2023-04-17T23:45:36.198Z,5.40
2023-04-17T23:48:06.214Z,4.80
2023-04-17T23:50:34.388Z,5.17
2023-04-17T23:53:02.542Z,4.73
2023-04-17T23:55:30.680Z,5.47
2023-04-17T23:57:58.807Z,5.43
